< < Back
Terminal Aerodrome Forecast


Current Version              Previous Versions:   1  2  3  4  5  6  7  8  9  

Terminal Aerodrome Forecast

770
FTUS42 KCHS 212300
TAFCHS
TAF
KCHS 212320Z 2200/2224 25005KT P6SM SKC
     FM221500 VRB03KT P6SM SCT040 SCT100
     FM222000 02007KT P6SM BKN040 PROB30 2220/2224 4SM -TSRA BR
      BKN040CB=

Latest METAR

024
SAUS80 KWBC 222000 RRB
MTRCHS
METAR KCHS 221956Z 17012KT 10SM SCT040CB SCT050 BKN250 30/20 A2994 RMK
AO2 SLP139 CB NW-NE MOV E T03000200


USA.gov is the U.S. government's official web portal to all federal, state and local government web resources and services.